createdAt,value
2018-01-14T09:35:07.338Z,18.87
2018-01-14T09:37:35.319Z,20.33
2018-01-14T09:40:03.328Z,19.27
2018-01-14T09:42:31.102Z,20.77
2018-01-14T09:44:59.685Z,17.83
2018-01-14T09:47:28.220Z,31.50
2018-01-14T09:49:56.154Z,25.37
2018-01-14T09:52:24.092Z,20.55
2018-01-14T09:54:52.165Z,19.87
2018-01-14T09:57:20.137Z,20.37
2018-01-14T09:59:48.735Z,19.62
2018-01-14T10:02:17.925Z,18.77
2018-01-14T10:04:45.687Z,18.37
2018-01-14T10:07:13.547Z,17.25
2018-01-14T10:09:42.097Z,15.90
2018-01-14T10:12:10.145Z,16.55
2018-01-14T10:14:38.164Z,16.50
2018-01-14T10:17:06.116Z,18.23
2018-01-14T10:19:34.153Z,16.17
2018-01-14T10:22:01.870Z,16.12
2018-01-14T10:24:30.433Z,17.15
2018-01-14T10:26:58.214Z,19.30
2018-01-14T10:29:26.707Z,18.20
2018-01-14T10:31:55.252Z,15.85
2018-01-14T10:34:23.002Z,16.45
2018-01-14T10:36:51.516Z,15.82
2018-01-14T10:39:19.295Z,14.85
2018-01-14T10:41:47.818Z,17.58
2018-01-14T10:44:15.639Z,15.98
2018-01-14T10:46:44.996Z,14.85
2018-01-14T10:49:12.824Z,16.12
2018-01-14T10:51:40.685Z,15.25
2018-01-14T10:54:10.436Z,14.80
2018-01-14T10:56:38.224Z,14.53
2018-01-14T10:59:06.091Z,15.35
2018-01-14T11:01:33.825Z,14.63
2018-01-14T11:04:01.543Z,16.10
2018-01-14T11:06:30.086Z,17.85
2018-01-14T11:08:57.924Z,15.98
2018-01-14T11:11:26.470Z,16.53
2018-01-14T11:13:54.440Z,15.65
2018-01-14T11:16:22.922Z,16.07
2018-01-14T11:18:55.769Z,17.90
2018-01-14T11:21:25.110Z,19.40
2018-01-14T11:23:53.770Z,16.20
2018-01-14T11:26:21.501Z,17.40
2018-01-14T11:28:52.385Z,20.80
2018-01-14T11:31:20.138Z,15.95
2018-01-14T11:33:47.936Z,17.30
2018-01-14T11:36:16.460Z,16.92
2018-01-14T11:38:44.250Z,15.27
2018-01-14T11:41:12.191Z,16.98
2018-01-14T11:43:41.269Z,16.40
2018-01-14T11:46:10.297Z,14.63
2018-01-14T11:48:38.229Z,16.85
2018-01-14T11:51:06.036Z,14.55
2018-01-14T11:53:33.825Z,15.10
2018-01-14T11:56:03.342Z,14.52
2018-01-14T11:58:32.045Z,16.25
2018-01-14T12:00:59.828Z,15.40
2018-01-14T12:03:27.693Z,15.10
2018-01-14T12:05:55.483Z,15.65
2018-01-14T12:08:23.339Z,15.13
2018-01-14T12:10:51.137Z,14.70
2018-01-14T12:13:18.852Z,16.62
2018-01-14T12:15:46.697Z,17.13
2018-01-14T12:18:14.513Z,14.02
2018-01-14T12:20:42.394Z,16.20
2018-01-14T12:23:10.184Z,14.30
2018-01-14T12:25:38.882Z,15.57
2018-01-14T12:31:02.700Z,15.07
2018-01-14T12:36:45.824Z,16.48
2018-01-14T12:39:13.648Z,15.50
2018-01-14T12:41:42.170Z,14.70
2018-01-14T12:44:09.976Z,14.48
2018-01-14T12:46:37.766Z,14.48
2018-01-14T12:49:05.823Z,17.20
2018-01-14T12:51:33.551Z,13.75
2018-01-14T12:54:01.356Z,14.43
2018-01-14T12:56:29.849Z,15.32
2018-01-14T12:58:58.580Z,13.80
2018-01-14T13:01:26.356Z,13.93
2018-01-14T13:03:54.188Z,14.40
2018-01-14T13:06:21.932Z,14.52
2018-01-14T13:08:50.673Z,14.95
2018-01-14T13:11:18.474Z,14.20
2018-01-14T13:13:46.966Z,13.70
2018-01-14T13:16:15.584Z,13.93
2018-01-14T13:18:44.212Z,14.55
2018-01-14T13:21:11.936Z,14.05
2018-01-14T13:23:39.756Z,14.30
2018-01-14T13:26:08.269Z,14.50
2018-01-14T13:28:39.920Z,13.77
2018-01-14T13:31:07.701Z,16.65
2018-01-14T13:33:35.512Z,15.57
2018-01-14T13:36:03.284Z,14.23
2018-01-14T13:38:31.788Z,13.18
2018-01-14T13:41:00.579Z,14.15
2018-01-14T13:43:28.361Z,13.75
2018-01-14T13:45:56.921Z,11.57
2018-01-14T13:48:24.787Z,15.40
2018-01-14T13:50:52.564Z,12.55
2018-01-14T13:53:20.317Z,13.27
2018-01-14T13:55:48.156Z,13.00
2018-01-14T14:04:53.467Z,11.98
2018-01-14T14:07:22.227Z,12.43
2018-01-14T14:09:52.434Z,12.13
2018-01-14T14:12:20.589Z,14.10
2018-01-14T14:14:48.919Z,14.32
2018-01-14T14:17:16.696Z,13.82
2018-01-14T14:19:46.197Z,13.48
2018-01-14T14:22:14.672Z,13.07
2018-01-14T14:24:43.225Z,12.20
2018-01-14T14:27:10.953Z,12.43
2018-01-14T14:29:38.925Z,14.60
2018-01-14T14:32:06.653Z,13.40
2018-01-14T14:34:35.141Z,12.82
2018-01-14T14:37:02.924Z,11.90
2018-01-14T14:39:30.683Z,14.00
2018-01-14T14:41:58.863Z,14.03
2018-01-14T14:44:26.601Z,13.53
2018-01-14T14:46:55.142Z,16.45
2018-01-14T14:49:22.838Z,14.10
2018-01-14T14:51:51.486Z,16.70
2018-01-14T14:54:19.192Z,20.52
2018-01-14T14:56:47.850Z,22.10
2018-01-14T14:59:15.636Z,19.20
2018-01-14T15:01:44.275Z,21.10
2018-01-14T15:04:12.197Z,15.30
2018-01-14T15:06:43.698Z,16.58
2018-01-14T15:09:12.532Z,14.18
2018-01-14T15:11:42.150Z,13.20
2018-01-14T15:14:10.642Z,14.57
2018-01-14T15:16:44.033Z,13.50
2018-01-14T15:19:11.824Z,13.98
2018-01-14T15:21:39.551Z,13.10
2018-01-14T15:24:08.139Z,12.98
2018-01-14T15:26:36.911Z,12.50
2018-01-14T15:29:04.711Z,11.65
2018-01-14T15:31:32.438Z,13.52
2018-01-14T15:34:00.199Z,14.00
2018-01-14T15:36:28.029Z,19.10
2018-01-14T15:38:55.993Z,15.40
2018-01-14T15:41:23.765Z,12.40
2018-01-14T15:43:51.480Z,13.85
2018-01-14T15:46:20.166Z,12.75
2018-01-14T15:48:47.907Z,13.85
2018-01-14T15:51:16.458Z,14.27
2018-01-14T15:53:44.770Z,12.10
2018-01-14T15:56:13.268Z,12.07
2018-01-14T15:58:42.822Z,10.60
2018-01-14T16:01:10.823Z,11.70
2018-01-14T16:03:38.660Z,12.57
2018-01-14T16:06:06.565Z,12.97
2018-01-14T16:08:34.430Z,11.52
2018-01-14T16:11:03.035Z,11.45
2018-01-14T16:13:31.403Z,13.65
2018-01-14T16:15:59.177Z,13.23
2018-01-14T16:18:26.941Z,16.27
2018-01-14T16:20:54.708Z,14.77
2018-01-14T16:23:22.416Z,19.33
2018-01-14T16:25:50.148Z,24.23
2018-01-14T16:28:17.969Z,24.05
2018-01-14T16:30:46.772Z,22.62
2018-01-14T16:33:16.028Z,23.12
2018-01-14T16:35:43.826Z,22.13
2018-01-14T16:38:22.027Z,18.37
2018-01-14T16:43:22.827Z,15.20
2018-01-14T16:45:50.609Z,13.62
2018-01-14T16:48:19.753Z,14.20
2018-01-14T16:50:48.243Z,14.35
2018-01-14T16:53:17.096Z,14.18
2018-01-14T16:55:45.105Z,15.10
2018-01-14T16:58:12.835Z,16.33
2018-01-14T17:00:40.636Z,18.60
2018-01-14T17:03:08.661Z,20.92
2018-01-14T17:05:36.658Z,25.90
2018-01-14T17:08:05.198Z,23.10
2018-01-14T17:10:32.984Z,21.30
2018-01-14T17:13:00.715Z,23.45
2018-01-14T17:15:28.555Z,22.80
2018-01-14T17:17:57.107Z,20.55
2018-01-14T17:20:26.274Z,20.92
2018-01-14T17:22:54.942Z,18.70
2018-01-14T17:25:22.708Z,22.03
2018-01-14T17:27:50.594Z,25.40
2018-01-14T17:30:18.429Z,21.90
2018-01-14T17:32:49.205Z,19.10
2018-01-14T17:35:17.710Z,18.03
2018-01-14T17:37:45.484Z,17.02
2018-01-14T17:40:14.047Z,19.50
2018-01-14T17:42:41.830Z,20.80
2018-01-14T17:45:13.816Z,24.23
2018-01-14T17:47:41.603Z,25.90
2018-01-14T17:50:09.354Z,28.23
2018-01-14T17:52:37.172Z,27.52
2018-01-14T17:55:06.080Z,24.58
2018-01-14T17:57:34.618Z,20.67
2018-01-14T18:00:02.497Z,18.30
2018-01-14T18:02:30.272Z,21.52
2018-01-14T18:04:58.020Z,21.58
2018-01-14T18:07:25.974Z,20.80
2018-01-14T18:09:55.407Z,19.10
2018-01-14T18:12:23.279Z,18.85
2018-01-14T18:14:51.008Z,16.52
2018-01-14T18:17:26.470Z,19.65
2018-01-14T18:19:54.236Z,37.08
2018-01-14T18:22:22.005Z,41.55
2018-01-14T18:24:49.772Z,44.22
2018-01-14T18:27:17.494Z,33.45
2018-01-14T18:29:45.296Z,35.85
2018-01-14T18:32:13.020Z,31.40
2018-01-14T18:34:40.783Z,31.03
2018-01-14T18:37:08.573Z,30.95
2018-01-14T18:39:36.384Z,29.90
2018-01-14T18:42:04.902Z,29.10
2018-01-14T18:44:33.542Z,25.17
2018-01-14T18:47:02.053Z,27.08
2018-01-14T18:49:29.758Z,22.75
2018-01-14T18:51:57.538Z,21.48
2018-01-14T18:54:25.630Z,19.23
2018-01-14T18:56:54.121Z,24.27
2018-01-14T18:59:23.269Z,34.53
2018-01-14T19:01:51.871Z,33.17
2018-01-14T19:04:19.604Z,39.05
2018-01-14T19:06:47.490Z,45.00
2018-01-14T19:09:15.210Z,43.42
2018-01-14T19:11:44.033Z,46.50
2018-01-14T19:14:11.801Z,39.65
2018-01-14T19:16:39.547Z,37.55
2018-01-14T19:19:07.921Z,32.17
2018-01-14T19:24:09.575Z,31.37
2018-01-14T19:26:38.287Z,29.35
2018-01-14T19:29:06.835Z,28.48
2018-01-14T19:31:34.603Z,30.88
2018-01-14T19:34:03.448Z,33.07
2018-01-14T19:36:32.012Z,31.70
2018-01-14T19:39:01.287Z,40.17
2018-01-14T19:41:29.101Z,41.22
2018-01-14T19:43:57.060Z,44.38
2018-01-14T19:46:27.820Z,47.65
2018-01-14T19:48:56.403Z,44.88
2018-01-14T19:51:24.917Z,47.03
2018-01-14T19:53:52.719Z,57.88
2018-01-14T19:56:21.068Z,63.87
2018-01-14T19:58:48.819Z,66.03
2018-01-14T20:01:16.623Z,65.05
2018-01-14T20:03:45.113Z,72.23
2018-01-14T20:06:13.375Z,65.43
2018-01-14T20:08:42.040Z,65.60
2018-01-14T20:11:09.883Z,51.85
2018-01-14T20:13:37.702Z,50.88
2018-01-14T20:16:05.430Z,46.73
2018-01-14T20:18:33.220Z,44.83
2018-01-14T20:21:00.985Z,39.10
2018-01-14T20:23:28.722Z,37.75
2018-01-14T20:25:57.013Z,36.83
2018-01-14T20:28:24.780Z,30.77
2018-01-14T20:30:52.656Z,34.23
2018-01-14T20:33:21.348Z,32.50
2018-01-14T20:35:49.157Z,30.92
2018-01-14T20:38:16.872Z,30.73
2018-01-14T20:40:44.699Z,28.93
2018-01-14T20:43:13.271Z,33.17
2018-01-14T20:45:40.986Z,29.20
2018-01-14T20:48:08.862Z,26.40
2018-01-14T20:50:36.774Z,28.00
2018-01-14T20:53:04.527Z,21.52
2018-01-14T20:55:32.333Z,25.98
2018-01-14T20:58:00.117Z,26.48
2018-01-14T21:00:27.836Z,25.17
2018-01-14T21:02:55.642Z,23.35
2018-01-14T21:05:23.419Z,23.08
2018-01-14T21:07:51.751Z,28.65
2018-01-14T21:10:20.376Z,29.12
2018-01-14T21:12:48.166Z,34.35
2018-01-14T21:15:17.710Z,39.83
2018-01-14T21:17:45.485Z,44.38
2018-01-14T21:20:13.243Z,44.88
2018-01-14T21:22:41.064Z,47.10
2018-01-14T21:25:11.752Z,45.97
2018-01-14T21:27:39.564Z,42.45
2018-01-14T21:30:08.146Z,45.35
2018-01-14T21:32:37.302Z,46.70
2018-01-14T21:35:05.836Z,43.72
2018-01-14T21:37:33.780Z,43.13
2018-01-14T21:40:01.515Z,38.78
2018-01-14T21:42:30.121Z,39.90
2018-01-14T21:44:57.891Z,37.22
2018-01-14T21:47:25.686Z,37.40
2018-01-14T21:49:53.416Z,35.20
2018-01-14T21:52:21.233Z,30.90
2018-01-14T21:54:49.014Z,31.40
2018-01-14T21:57:16.776Z,30.53
2018-01-14T21:59:45.456Z,29.02
2018-01-14T22:02:13.293Z,27.90
2018-01-14T22:04:41.109Z,27.30
2018-01-14T22:07:09.740Z,25.93
2018-01-14T22:09:37.504Z,25.10
2018-01-14T22:12:05.273Z,24.35
2018-01-14T22:14:33.303Z,27.65
2018-01-14T22:17:01.053Z,26.77
2018-01-14T22:19:28.774Z,25.70
2018-01-14T22:21:56.580Z,26.98
2018-01-14T22:24:24.430Z,23.62
2018-01-14T22:26:52.155Z,22.73
2018-01-14T22:29:19.977Z,24.37
2018-01-14T22:31:47.764Z,25.03
2018-01-14T22:34:16.485Z,23.77
2018-01-14T22:36:44.241Z,25.70
2018-01-14T22:39:12.001Z,25.75
2018-01-14T22:41:39.807Z,23.73
2018-01-14T22:44:07.645Z,23.17
2018-01-14T22:46:35.389Z,23.48
2018-01-14T22:49:03.160Z,25.52
2018-01-14T22:51:30.971Z,28.55
2018-01-14T22:53:58.830Z,32.40
2018-01-14T22:56:26.612Z,31.75
2018-01-14T22:58:54.371Z,29.92
2018-01-14T23:01:22.286Z,33.83
2018-01-14T23:03:50.058Z,32.03
2018-01-14T23:06:17.968Z,28.33
2018-01-14T23:08:45.775Z,27.98
2018-01-14T23:11:14.318Z,32.95
2018-01-14T23:13:42.126Z,31.33
2018-01-14T23:16:09.840Z,30.27
2018-01-14T23:18:37.681Z,29.77
2018-01-14T23:21:05.468Z,32.15
2018-01-14T23:23:33.229Z,29.00
2018-01-14T23:26:01.846Z,29.65
2018-01-14T23:28:30.401Z,27.70
2018-01-14T23:30:58.256Z,28.40
2018-01-14T23:33:26.023Z,27.20
2018-01-14T23:35:53.788Z,29.50
2018-01-14T23:38:21.503Z,28.48
2018-01-14T23:40:50.033Z,27.45
2018-01-14T23:43:17.800Z,25.10
2018-01-14T23:45:46.582Z,26.62
2018-01-14T23:48:14.347Z,24.33
2018-01-14T23:50:42.112Z,24.98
2018-01-14T23:53:10.407Z,22.25
2018-01-14T23:55:38.197Z,23.52
2018-01-14T23:58:06.760Z,23.23
